TNCMTTPP

Guest
Details From TNCM - St Maarten - Princess Juliana Intl
To TTPP - Trinidade Piarco
Flight Number -
Tags Generated
Created
Modified
Stats Distance 459 nm / 850 km
Max Altitude 0 ft / 0 m
Waypoints 3
Social Downloads 2
Likes 0
Share VATSIM

Download

Looking for another format? Having issues loading an existing format? Contact us
Advertisement - Login to hide

Notes

Generated

Route

TNCM R1535 TTPP

ID Type Via Altitude Latitude Longitude Leg Dist Tot Dist Heading (true) Name
O TNCM APT - 0 ft / 0 m 18.03937˚ -63.11961˚ - 0 nm - -
R1535 FIX - 0 ft / 0 m 10.59533˚ -61.35186˚ 458 nm 458 nm 167° / 167° -
O TTPP APT - 0 ft / 0 m 10.59533˚ -61.35186˚ 0 nm 458 nm 0° / 180° -

Altitude Profile

Advertisement - Login to hide

Weather


0- 5 10 15 20 25 30 35+ Temperature / ° C

Clouds and Precipitation
Forecast for 2017-12-14 18:00 UTC. Updated 2 hours ago

Ground ~20,000 ft ~40,000 ft Winds

TNCM

Details ICAO TNCM (SXM)
Name St Maarten - Princess Juliana Intl
Region Caribbean Netherlands, Aruba, Curaçao, Sint Maarten
Timezone Unknown (UTC+0.0)
Stats Elevation 12 ft / 4 m (AMSL)
Location 18.040889° -63.108974°
Runways 1
Magnetic Variation 14.325° W

METAR

TNCM 141500Z 12008KT 090V160 9999 FEW024 29/21 Q1018 A3007 NOSIG

Decode

TAF

TAF TNCM 141140Z 1412/1512 09008KT P6SM SCT020

Decode

Departure Runways

ID Width Length Bearing (true) Bearing (mag) Surface Threshold Offset Overrun Length
10 148 ft / 45 m 7,464 ft / 2,275 m 81.43° 95.76° Asphalt 0 ft / 0 m 151 ft / 46 m
28 148 ft / 45 m 7,464 ft / 2,275 m 261.44° 275.77° Asphalt 397 ft / 121 m 0 ft / 0 m

TTPP

Details ICAO TTPP (POS)
Name Trinidad/Piarco Intl
Region Trinidad and Tobago
Timezone America/Port_of_Spain (UTC-4.0)
Stats Elevation 57 ft / 17 m (AMSL)
Location 10.595370° -61.337239°
Runways 1
Magnetic Variation 15.000° W

METAR

TTPP 141500Z 10015KT 9999 FEW022 30/24 Q1014 NOSIG

Decode

TAF

Not found

Destination Runways

ID Width Length Bearing (true) Bearing (mag) Surface Threshold Offset Overrun Length
10 151 ft / 46 m 10,486 ft / 3,196 m 89.83° 104.83° Asphalt 0 ft / 0 m 79 ft / 24 m
28 151 ft / 46 m 10,486 ft / 3,196 m 269.84° 284.84° Asphalt 0 ft / 0 m 184 ft / 56 m

Approach Navaids

Runway Type Ident Frequency Range Bearing (true) Bearing (mag) Slope Elevation
10 Localiser IPOS 109.70 MHz 18 nm / 33 km 89.49° 104.49° - 57 ft / 17 m (AMSL)
10 Glidescope IPOS 109.70 MHz 10 nm / 19 km 89.83° 104.84° 3.00° 57 ft / 17 m (AMSL)
10 DME IPOS 109.70 MHz 18 nm / 33 km - - - 57 ft / 17 m (AMSL)

Popular Alternatives